sensor_id;sensor_type;location;lat;lon;timestamp;temperature;humidity
6377;DHT22;3221;48.858;10.128;2023-06-14T00:00:46;16.20;63.00
6377;DHT22;3221;48.858;10.128;2023-06-14T00:03:15;16.30;63.70
6377;DHT22;3221;48.858;10.128;2023-06-14T00:05:44;16.10;62.60
6377;DHT22;3221;48.858;10.128;2023-06-14T00:08:14;16.10;61.60
6377;DHT22;3221;48.858;10.128;2023-06-14T00:10:41;16.20;62.50
6377;DHT22;3221;48.858;10.128;2023-06-14T00:13:09;16.20;63.20
6377;DHT22;3221;48.858;10.128;2023-06-14T00:15:37;16.10;60.80
6377;DHT22;3221;48.858;10.128;2023-06-14T00:18:04;16.20;62.20
6377;DHT22;3221;48.858;10.128;2023-06-14T00:20:32;16.10;62.60
6377;DHT22;3221;48.858;10.128;2023-06-14T00:23:00;16.10;61.90
6377;DHT22;3221;48.858;10.128;2023-06-14T00:25:27;16.10;62.00
6377;DHT22;3221;48.858;10.128;2023-06-14T00:27:57;16.00;61.80
6377;DHT22;3221;48.858;10.128;2023-06-14T00:30:24;16.10;62.60
6377;DHT22;3221;48.858;10.128;2023-06-14T00:32:52;16.10;60.90
6377;DHT22;3221;48.858;10.128;2023-06-14T00:35:19;16.10;61.10
6377;DHT22;3221;48.858;10.128;2023-06-14T00:37:46;16.10;59.60
6377;DHT22;3221;48.858;10.128;2023-06-14T00:40:12;16.00;62.10
6377;DHT22;3221;48.858;10.128;2023-06-14T00:42:40;16.20;61.00
6377;DHT22;3221;48.858;10.128;2023-06-14T00:45:07;16.10;62.40
6377;DHT22;3221;48.858;10.128;2023-06-14T00:47:35;16.10;61.50
6377;DHT22;3221;48.858;10.128;2023-06-14T00:50:06;16.00;62.00
6377;DHT22;3221;48.858;10.128;2023-06-14T00:52:34;16.00;60.80
6377;DHT22;3221;48.858;10.128;2023-06-14T00:55:01;16.00;61.80
6377;DHT22;3221;48.858;10.128;2023-06-14T00:57:28;16.00;60.90
6377;DHT22;3221;48.858;10.128;2023-06-14T00:59:56;16.00;58.80
6377;DHT22;3221;48.858;10.128;2023-06-14T01:02:23;16.00;61.20
6377;DHT22;3221;48.858;10.128;2023-06-14T01:04:51;16.10;60.00
6377;DHT22;3221;48.858;10.128;2023-06-14T01:10:21;16.10;61.50
6377;DHT22;3221;48.858;10.128;2023-06-14T01:15:47;15.90;61.30
6377;DHT22;3221;48.858;10.128;2023-06-14T01:18:14;15.90;61.70
6377;DHT22;3221;48.858;10.128;2023-06-14T01:20:47;15.90;61.10
6377;DHT22;3221;48.858;10.128;2023-06-14T01:23:20;15.90;60.70
6377;DHT22;3221;48.858;10.128;2023-06-14T01:25:48;15.90;61.40
6377;DHT22;3221;48.858;10.128;2023-06-14T01:28:21;15.90;61.60
6377;DHT22;3221;48.858;10.128;2023-06-14T01:30:50;15.90;60.80
6377;DHT22;3221;48.858;10.128;2023-06-14T01:33:21;15.90;60.50
6377;DHT22;3221;48.858;10.128;2023-06-14T01:35:51;15.80;61.00
6377;DHT22;3221;48.858;10.128;2023-06-14T01:38:20;15.90;61.00
6377;DHT22;3221;48.858;10.128;2023-06-14T01:40:48;15.70;60.90
6377;DHT22;3221;48.858;10.128;2023-06-14T01:43:16;15.70;62.00
6377;DHT22;3221;48.858;10.128;2023-06-14T01:45:45;15.70;61.60
6377;DHT22;3221;48.858;10.128;2023-06-14T01:48:13;15.60;61.10
6377;DHT22;3221;48.858;10.128;2023-06-14T01:50:41;15.70;62.10
6377;DHT22;3221;48.858;10.128;2023-06-14T01:53:08;15.70;62.10
6377;DHT22;3221;48.858;10.128;2023-06-14T01:55:37;15.50;62.50
6377;DHT22;3221;48.858;10.128;2023-06-14T01:58:06;15.80;62.70
6377;DHT22;3221;48.858;10.128;2023-06-14T02:00:33;15.70;62.90
6377;DHT22;3221;48.858;10.128;2023-06-14T02:03:00;15.60;63.50
6377;DHT22;3221;48.858;10.128;2023-06-14T02:05:27;15.40;63.90
6377;DHT22;3221;48.858;10.128;2023-06-14T02:07:54;15.50;63.90
6377;DHT22;3221;48.858;10.128;2023-06-14T02:10:21;15.30;65.20
6377;DHT22;3221;48.858;10.128;2023-06-14T02:12:48;15.00;66.10
6377;DHT22;3221;48.858;10.128;2023-06-14T02:15:15;14.80;67.80
6377;DHT22;3221;48.858;10.128;2023-06-14T02:17:46;14.60;68.60
6377;DHT22;3221;48.858;10.128;2023-06-14T02:20:17;14.30;69.70
6377;DHT22;3221;48.858;10.128;2023-06-14T02:22:45;13.80;70.70
6377;DHT22;3221;48.858;10.128;2023-06-14T02:25:12;13.70;70.50
6377;DHT22;3221;48.858;10.128;2023-06-14T02:27:40;13.70;70.70
6377;DHT22;3221;48.858;10.128;2023-06-14T02:30:07;13.70;71.50
6377;DHT22;3221;48.858;10.128;2023-06-14T02:32:34;13.40;72.00
6377;DHT22;3221;48.858;10.128;2023-06-14T02:35:03;13.30;72.30
6377;DHT22;3221;48.858;10.128;2023-06-14T02:37:30;13.30;72.30
6377;DHT22;3221;48.858;10.128;2023-06-14T02:39:58;13.20;73.80
6377;DHT22;3221;48.858;10.128;2023-06-14T02:42:25;13.00;72.80
6377;DHT22;3221;48.858;10.128;2023-06-14T02:44:52;12.90;72.90
6377;DHT22;3221;48.858;10.128;2023-06-14T02:47:20;12.90;72.90
6377;DHT22;3221;48.858;10.128;2023-06-14T02:49:47;12.90;72.10
6377;DHT22;3221;48.858;10.128;2023-06-14T02:52:15;13.10;71.30
6377;DHT22;3221;48.858;10.128;2023-06-14T02:54:42;13.20;71.50
6377;DHT22;3221;48.858;10.128;2023-06-14T02:57:10;13.10;71.60
6377;DHT22;3221;48.858;10.128;2023-06-14T02:59:38;13.40;72.00
6377;DHT22;3221;48.858;10.128;2023-06-14T03:02:05;13.60;71.30
6377;DHT22;3221;48.858;10.128;2023-06-14T03:04:33;13.60;71.30
6377;DHT22;3221;48.858;10.128;2023-06-14T03:07:08;13.90;71.60
6377;DHT22;3221;48.858;10.128;2023-06-14T03:09:41;14.00;71.10
6377;DHT22;3221;48.858;10.128;2023-06-14T03:12:11;13.80;71.40
6377;DHT22;3221;48.858;10.128;2023-06-14T03:14:38;13.70;72.30
6377;DHT22;3221;48.858;10.128;2023-06-14T03:17:07;13.60;73.40
6377;DHT22;3221;48.858;10.128;2023-06-14T03:19:36;13.10;74.70
6377;DHT22;3221;48.858;10.128;2023-06-14T03:22:04;12.90;74.70
6377;DHT22;3221;48.858;10.128;2023-06-14T03:24:32;12.60;74.60
6377;DHT22;3221;48.858;10.128;2023-06-14T03:27:08;12.70;74.20
6377;DHT22;3221;48.858;10.128;2023-06-14T03:29:39;12.60;74.80
6377;DHT22;3221;48.858;10.128;2023-06-14T03:32:07;12.50;75.00
6377;DHT22;3221;48.858;10.128;2023-06-14T03:34:37;12.30;75.30
6377;DHT22;3221;48.858;10.128;2023-06-14T03:37:12;12.20;75.00
6377;DHT22;3221;48.858;10.128;2023-06-14T03:39:39;12.40;75.00
6377;DHT22;3221;48.858;10.128;2023-06-14T03:42:16;12.60;76.20
6377;DHT22;3221;48.858;10.128;2023-06-14T03:44:44;12.40;75.60
6377;DHT22;3221;48.858;10.128;2023-06-14T03:47:11;12.20;76.90
6377;DHT22;3221;48.858;10.128;2023-06-14T03:49:38;12.50;76.10
6377;DHT22;3221;48.858;10.128;2023-06-14T03:52:06;12.60;74.90
6377;DHT22;3221;48.858;10.128;2023-06-14T03:54:35;12.80;74.10
6377;DHT22;3221;48.858;10.128;2023-06-14T03:57:05;13.00;74.30
6377;DHT22;3221;48.858;10.128;2023-06-14T03:59:33;13.20;73.30
6377;DHT22;3221;48.858;10.128;2023-06-14T04:02:00;13.40;72.80
6377;DHT22;3221;48.858;10.128;2023-06-14T04:04:27;13.70;73.50
6377;DHT22;3221;48.858;10.128;2023-06-14T04:06:57;13.40;73.20
6377;DHT22;3221;48.858;10.128;2023-06-14T04:09:26;13.10;74.40
6377;DHT22;3221;48.858;10.128;2023-06-14T04:11:53;13.00;74.30
6377;DHT22;3221;48.858;10.128;2023-06-14T04:14:20;13.00;74.60
6377;DHT22;3221;48.858;10.128;2023-06-14T04:16:47;13.10;74.20
6377;DHT22;3221;48.858;10.128;2023-06-14T04:19:17;13.40;74.10
6377;DHT22;3221;48.858;10.128;2023-06-14T04:21:44;13.10;75.60
6377;DHT22;3221;48.858;10.128;2023-06-14T04:24:13;12.90;75.90
6377;DHT22;3221;48.858;10.128;2023-06-14T04:26:44;12.80;77.00
6377;DHT22;3221;48.858;10.128;2023-06-14T04:29:16;13.10;76.10
6377;DHT22;3221;48.858;10.128;2023-06-14T04:31:54;13.10;76.40
6377;DHT22;3221;48.858;10.128;2023-06-14T04:34:26;13.10;79.70
6377;DHT22;3221;48.858;10.128;2023-06-14T04:36:56;12.80;78.50
6377;DHT22;3221;48.858;10.128;2023-06-14T04:39:30;12.50;80.60
6377;DHT22;3221;48.858;10.128;2023-06-14T04:41:59;12.40;80.80
6377;DHT22;3221;48.858;10.128;2023-06-14T04:44:28;12.70;80.90
6377;DHT22;3221;48.858;10.128;2023-06-14T04:47:01;12.70;80.20
6377;DHT22;3221;48.858;10.128;2023-06-14T04:49:28;12.50;82.50
6377;DHT22;3221;48.858;10.128;2023-06-14T04:51:59;12.30;83.80
6377;DHT22;3221;48.858;10.128;2023-06-14T04:54:33;12.20;83.30
6377;DHT22;3221;48.858;10.128;2023-06-14T04:57:08;12.70;81.20
6377;DHT22;3221;48.858;10.128;2023-06-14T04:59:35;12.80;81.40
6377;DHT22;3221;48.858;10.128;2023-06-14T05:02:02;12.80;81.40
6377;DHT22;3221;48.858;10.128;2023-06-14T05:04:29;12.90;81.80
6377;DHT22;3221;48.858;10.128;2023-06-14T05:06:58;13.00;81.40
6377;DHT22;3221;48.858;10.128;2023-06-14T05:09:25;13.10;79.80
6377;DHT22;3221;48.858;10.128;2023-06-14T05:11:51;13.30;78.90
6377;DHT22;3221;48.858;10.128;2023-06-14T05:14:20;13.50;79.00
6377;DHT22;3221;48.858;10.128;2023-06-14T05:16:46;13.60;80.50
6377;DHT22;3221;48.858;10.128;2023-06-14T05:19:15;13.70;78.80
6377;DHT22;3221;48.858;10.128;2023-06-14T05:21:44;14.10;77.90
6377;DHT22;3221;48.858;10.128;2023-06-14T05:24:11;13.90;77.90
6377;DHT22;3221;48.858;10.128;2023-06-14T05:26:39;14.10;77.50
6377;DHT22;3221;48.858;10.128;2023-06-14T05:29:05;14.30;76.20
6377;DHT22;3221;48.858;10.128;2023-06-14T05:31:32;14.00;77.30
6377;DHT22;3221;48.858;10.128;2023-06-14T05:33:59;14.00;75.70
6377;DHT22;3221;48.858;10.128;2023-06-14T05:36:26;14.00;78.30
6377;DHT22;3221;48.858;10.128;2023-06-14T05:38:54;14.00;79.30
6377;DHT22;3221;48.858;10.128;2023-06-14T05:41:25;13.90;79.30
6377;DHT22;3221;48.858;10.128;2023-06-14T05:43:54;14.00;78.80
6377;DHT22;3221;48.858;10.128;2023-06-14T05:46:21;14.00;78.10
6377;DHT22;3221;48.858;10.128;2023-06-14T05:48:48;14.10;80.20
6377;DHT22;3221;48.858;10.128;2023-06-14T05:51:15;14.50;77.90
6377;DHT22;3221;48.858;10.128;2023-06-14T05:53:46;14.60;81.10
6377;DHT22;3221;48.858;10.128;2023-06-14T05:56:14;14.50;82.30
6377;DHT22;3221;48.858;10.128;2023-06-14T05:58:41;14.60;78.10
6377;DHT22;3221;48.858;10.128;2023-06-14T06:01:08;14.80;78.20
6377;DHT22;3221;48.858;10.128;2023-06-14T06:03:35;14.60;84.10
6377;DHT22;3221;48.858;10.128;2023-06-14T06:06:02;14.50;82.50
6377;DHT22;3221;48.858;10.128;2023-06-14T06:08:29;14.80;80.30
6377;DHT22;3221;48.858;10.128;2023-06-14T06:10:57;15.10;78.90
6377;DHT22;3221;48.858;10.128;2023-06-14T06:13:23;15.00;76.80
6377;DHT22;3221;48.858;10.128;2023-06-14T06:15:50;15.10;76.50
6377;DHT22;3221;48.858;10.128;2023-06-14T06:18:18;15.00;77.20
6377;DHT22;3221;48.858;10.128;2023-06-14T06:20:44;15.00;78.50
6377;DHT22;3221;48.858;10.128;2023-06-14T06:23:13;15.20;78.20
6377;DHT22;3221;48.858;10.128;2023-06-14T06:25:40;15.30;78.40
6377;DHT22;3221;48.858;10.128;2023-06-14T06:28:08;15.40;79.10
6377;DHT22;3221;48.858;10.128;2023-06-14T06:30:35;15.30;78.80
6377;DHT22;3221;48.858;10.128;2023-06-14T06:33:03;15.30;81.20
6377;DHT22;3221;48.858;10.128;2023-06-14T06:35:30;15.30;79.70
6377;DHT22;3221;48.858;10.128;2023-06-14T06:38:00;15.60;79.40
6377;DHT22;3221;48.858;10.128;2023-06-14T06:40:27;15.50;78.20
6377;DHT22;3221;48.858;10.128;2023-06-14T06:42:54;15.70;79.40
6377;DHT22;3221;48.858;10.128;2023-06-14T06:45:25;15.70;79.60
6377;DHT22;3221;48.858;10.128;2023-06-14T06:47:52;15.70;78.70
6377;DHT22;3221;48.858;10.128;2023-06-14T06:50:19;15.80;78.40
6377;DHT22;3221;48.858;10.128;2023-06-14T06:52:47;15.70;79.40
6377;DHT22;3221;48.858;10.128;2023-06-14T06:55:13;15.70;78.70
6377;DHT22;3221;48.858;10.128;2023-06-14T06:57:41;15.80;79.50
6377;DHT22;3221;48.858;10.128;2023-06-14T07:00:09;15.80;78.30
6377;DHT22;3221;48.858;10.128;2023-06-14T07:02:36;15.90;77.90
6377;DHT22;3221;48.858;10.128;2023-06-14T07:05:03;16.00;78.70
6377;DHT22;3221;48.858;10.128;2023-06-14T07:07:31;16.10;77.70
6377;DHT22;3221;48.858;10.128;2023-06-14T07:09:58;16.10;78.10
6377;DHT22;3221;48.858;10.128;2023-06-14T07:12:26;16.20;78.20
6377;DHT22;3221;48.858;10.128;2023-06-14T07:14:53;16.30;77.60
6377;DHT22;3221;48.858;10.128;2023-06-14T07:17:20;16.40;77.90
6377;DHT22;3221;48.858;10.128;2023-06-14T07:19:47;16.50;77.90
6377;DHT22;3221;48.858;10.128;2023-06-14T07:22:15;16.50;78.80
6377;DHT22;3221;48.858;10.128;2023-06-14T07:24:42;16.30;75.90
6377;DHT22;3221;48.858;10.128;2023-06-14T07:27:09;16.40;78.20
6377;DHT22;3221;48.858;10.128;2023-06-14T07:29:40;16.50;78.50
6377;DHT22;3221;48.858;10.128;2023-06-14T07:32:07;16.60;78.30
6377;DHT22;3221;48.858;10.128;2023-06-14T07:34:34;16.70;77.20
6377;DHT22;3221;48.858;10.128;2023-06-14T07:37:01;16.70;77.40
6377;DHT22;3221;48.858;10.128;2023-06-14T07:39:29;16.70;77.50
6377;DHT22;3221;48.858;10.128;2023-06-14T07:41:56;16.80;78.80
6377;DHT22;3221;48.858;10.128;2023-06-14T07:44:22;16.80;77.00
6377;DHT22;3221;48.858;10.128;2023-06-14T07:46:49;16.90;77.10
6377;DHT22;3221;48.858;10.128;2023-06-14T07:49:16;17.00;78.20
6377;DHT22;3221;48.858;10.128;2023-06-14T07:51:43;17.10;76.70
6377;DHT22;3221;48.858;10.128;2023-06-14T07:54:11;17.10;76.70
6377;DHT22;3221;48.858;10.128;2023-06-14T07:56:38;17.00;77.10
6377;DHT22;3221;48.858;10.128;2023-06-14T07:59:07;17.10;77.60
6377;DHT22;3221;48.858;10.128;2023-06-14T08:01:34;17.10;76.70
6377;DHT22;3221;48.858;10.128;2023-06-14T08:04:01;17.20;76.50
6377;DHT22;3221;48.858;10.128;2023-06-14T08:06:28;17.20;76.70
6377;DHT22;3221;48.858;10.128;2023-06-14T08:08:55;17.10;76.50
6377;DHT22;3221;48.858;10.128;2023-06-14T08:11:22;17.30;74.60
6377;DHT22;3221;48.858;10.128;2023-06-14T08:13:50;17.20;75.90
6377;DHT22;3221;48.858;10.128;2023-06-14T08:16:17;17.30;76.10
6377;DHT22;3221;48.858;10.128;2023-06-14T08:18:44;17.40;78.40
6377;DHT22;3221;48.858;10.128;2023-06-14T08:21:11;17.50;77.90
6377;DHT22;3221;48.858;10.128;2023-06-14T08:23:40;17.50;77.20
6377;DHT22;3221;48.858;10.128;2023-06-14T08:26:10;17.60;76.30
6377;DHT22;3221;48.858;10.128;2023-06-14T08:28:37;17.60;77.00
6377;DHT22;3221;48.858;10.128;2023-06-14T08:31:04;17.70;74.90
6377;DHT22;3221;48.858;10.128;2023-06-14T08:33:31;17.70;75.30
6377;DHT22;3221;48.858;10.128;2023-06-14T08:36:01;17.80;76.10
6377;DHT22;3221;48.858;10.128;2023-06-14T08:38:28;17.70;74.10
6377;DHT22;3221;48.858;10.128;2023-06-14T08:40:57;17.80;75.00
6377;DHT22;3221;48.858;10.128;2023-06-14T08:43:25;17.90;75.50
6377;DHT22;3221;48.858;10.128;2023-06-14T08:45:58;17.80;75.80
6377;DHT22;3221;48.858;10.128;2023-06-14T08:48:26;17.90;75.80
6377;DHT22;3221;48.858;10.128;2023-06-14T08:50:59;17.90;73.80
6377;DHT22;3221;48.858;10.128;2023-06-14T08:53:30;17.70;74.80
6377;DHT22;3221;48.858;10.128;2023-06-14T08:56:02;17.80;76.40
6377;DHT22;3221;48.858;10.128;2023-06-14T08:58:31;18.00;76.80
6377;DHT22;3221;48.858;10.128;2023-06-14T09:01:04;18.00;75.30
6377;DHT22;3221;48.858;10.128;2023-06-14T09:03:31;17.80;75.20
6377;DHT22;3221;48.858;10.128;2023-06-14T09:06:00;18.10;77.00
6377;DHT22;3221;48.858;10.128;2023-06-14T09:08:28;18.50;74.80
6377;DHT22;3221;48.858;10.128;2023-06-14T09:10:58;18.50;75.10
6377;DHT22;3221;48.858;10.128;2023-06-14T09:13:26;18.60;76.60
6377;DHT22;3221;48.858;10.128;2023-06-14T09:15:57;18.60;74.60
6377;DHT22;3221;48.858;10.128;2023-06-14T09:18:38;18.60;75.00
6377;DHT22;3221;48.858;10.128;2023-06-14T09:21:08;18.60;76.20
6377;DHT22;3221;48.858;10.128;2023-06-14T09:23:46;18.80;75.40
6377;DHT22;3221;48.858;10.128;2023-06-14T09:26:15;18.80;72.70
6377;DHT22;3221;48.858;10.128;2023-06-14T09:28:44;18.90;75.50
6377;DHT22;3221;48.858;10.128;2023-06-14T09:31:18;18.80;74.10
6377;DHT22;3221;48.858;10.128;2023-06-14T09:33:49;18.90;75.30
6377;DHT22;3221;48.858;10.128;2023-06-14T09:36:24;19.00;74.90
6377;DHT22;3221;48.858;10.128;2023-06-14T09:39:02;19.00;74.70
6377;DHT22;3221;48.858;10.128;2023-06-14T09:41:40;19.00;75.70
6377;DHT22;3221;48.858;10.128;2023-06-14T09:44:08;19.20;74.00
6377;DHT22;3221;48.858;10.128;2023-06-14T09:46:41;19.00;72.10
6377;DHT22;3221;48.858;10.128;2023-06-14T09:49:08;19.10;73.30
6377;DHT22;3221;48.858;10.128;2023-06-14T09:51:42;19.30;69.40
6377;DHT22;3221;48.858;10.128;2023-06-14T09:54:15;19.40;69.60
6377;DHT22;3221;48.858;10.128;2023-06-14T09:56:45;19.40;69.40
6377;DHT22;3221;48.858;10.128;2023-06-14T09:59:13;19.30;68.20
6377;DHT22;3221;48.858;10.128;2023-06-14T10:01:43;19.50;70.90
6377;DHT22;3221;48.858;10.128;2023-06-14T10:04:11;19.50;72.80
6377;DHT22;3221;48.858;10.128;2023-06-14T10:06:45;19.50;70.40
6377;DHT22;3221;48.858;10.128;2023-06-14T10:09:12;19.50;70.00
6377;DHT22;3221;48.858;10.128;2023-06-14T10:11:40;19.50;70.50
6377;DHT22;3221;48.858;10.128;2023-06-14T10:14:12;19.60;72.40
6377;DHT22;3221;48.858;10.128;2023-06-14T10:17:04;19.70;71.80
6377;DHT22;3221;48.858;10.128;2023-06-14T10:19:53;19.80;69.10
6377;DHT22;3221;48.858;10.128;2023-06-14T10:22:39;19.80;68.30
6377;DHT22;3221;48.858;10.128;2023-06-14T10:25:13;19.60;69.00
6377;DHT22;3221;48.858;10.128;2023-06-14T10:27:44;19.40;69.30
6377;DHT22;3221;48.858;10.128;2023-06-14T10:30:15;19.40;70.30
6377;DHT22;3221;48.858;10.128;2023-06-14T10:33:07;19.50;68.80
6377;DHT22;3221;48.858;10.128;2023-06-14T10:35:34;19.50;68.00
6377;DHT22;3221;48.858;10.128;2023-06-14T10:38:09;19.30;66.80
6377;DHT22;3221;48.858;10.128;2023-06-14T10:40:36;19.50;67.60
6377;DHT22;3221;48.858;10.128;2023-06-14T10:43:21;19.90;68.20
6377;DHT22;3221;48.858;10.128;2023-06-14T10:46:15;20.10;67.50
6377;DHT22;3221;48.858;10.128;2023-06-14T10:48:43;20.30;67.30
6377;DHT22;3221;48.858;10.128;2023-06-14T10:51:18;20.50;67.30
6377;DHT22;3221;48.858;10.128;2023-06-14T10:53:48;20.60;65.50
6377;DHT22;3221;48.858;10.128;2023-06-14T10:56:29;20.80;66.10
6377;DHT22;3221;48.858;10.128;2023-06-14T10:58:57;20.80;67.20
6377;DHT22;3221;48.858;10.128;2023-06-14T11:01:36;20.50;66.70
6377;DHT22;3221;48.858;10.128;2023-06-14T11:04:08;20.20;68.00
6377;DHT22;3221;48.858;10.128;2023-06-14T11:06:46;20.10;67.80
6377;DHT22;3221;48.858;10.128;2023-06-14T11:11:57;20.00;69.80
6377;DHT22;3221;48.858;10.128;2023-06-14T11:14:24;20.00;70.10
6377;DHT22;3221;48.858;10.128;2023-06-14T11:16:51;20.00;67.10
6377;DHT22;3221;48.858;10.128;2023-06-14T11:19:18;20.10;67.60
6377;DHT22;3221;48.858;10.128;2023-06-14T11:21:48;20.00;66.10
6377;DHT22;3221;48.858;10.128;2023-06-14T11:24:16;19.90;63.20
6377;DHT22;3221;48.858;10.128;2023-06-14T11:26:44;19.80;68.30
6377;DHT22;3221;48.858;10.128;2023-06-14T11:29:10;19.70;67.10
6377;DHT22;3221;48.858;10.128;2023-06-14T11:31:37;19.80;67.30
6377;DHT22;3221;48.858;10.128;2023-06-14T11:34:04;19.90;67.80
6377;DHT22;3221;48.858;10.128;2023-06-14T11:36:34;20.10;66.50
6377;DHT22;3221;48.858;10.128;2023-06-14T11:39:06;20.10;62.10
6377;DHT22;3221;48.858;10.128;2023-06-14T11:41:38;20.20;66.70
6377;DHT22;3221;48.858;10.128;2023-06-14T11:44:06;20.10;64.20
6377;DHT22;3221;48.858;10.128;2023-06-14T11:46:34;20.10;66.00
6377;DHT22;3221;48.858;10.128;2023-06-14T11:49:02;20.20;69.30
6377;DHT22;3221;48.858;10.128;2023-06-14T11:51:32;20.20;68.90
6377;DHT22;3221;48.858;10.128;2023-06-14T11:54:01;20.20;69.60
6377;DHT22;3221;48.858;10.128;2023-06-14T11:56:30;20.30;69.40
6377;DHT22;3221;48.858;10.128;2023-06-14T11:58:58;20.20;70.40
6377;DHT22;3221;48.858;10.128;2023-06-14T12:01:26;20.10;69.40
6377;DHT22;3221;48.858;10.128;2023-06-14T12:03:54;19.90;68.30
6377;DHT22;3221;48.858;10.128;2023-06-14T12:06:29;19.80;68.60
6377;DHT22;3221;48.858;10.128;2023-06-14T12:09:00;19.70;70.40
6377;DHT22;3221;48.858;10.128;2023-06-14T12:11:34;19.80;71.30
6377;DHT22;3221;48.858;10.128;2023-06-14T12:14:03;19.70;69.30
6377;DHT22;3221;48.858;10.128;2023-06-14T12:16:37;20.10;68.60
6377;DHT22;3221;48.858;10.128;2023-06-14T12:19:17;20.20;69.40
6377;DHT22;3221;48.858;10.128;2023-06-14T12:21:47;20.20;69.80
6377;DHT22;3221;48.858;10.128;2023-06-14T12:24:18;20.30;69.90
6377;DHT22;3221;48.858;10.128;2023-06-14T12:26:46;20.20;69.20
6377;DHT22;3221;48.858;10.128;2023-06-14T12:29:13;20.10;66.90
6377;DHT22;3221;48.858;10.128;2023-06-14T12:31:40;20.10;70.20
6377;DHT22;3221;48.858;10.128;2023-06-14T12:34:08;20.10;67.40
6377;DHT22;3221;48.858;10.128;2023-06-14T12:36:35;20.10;67.40
6377;DHT22;3221;48.858;10.128;2023-06-14T12:39:07;20.00;69.50
6377;DHT22;3221;48.858;10.128;2023-06-14T12:41:34;19.90;68.20
6377;DHT22;3221;48.858;10.128;2023-06-14T12:44:03;19.90;69.10
6377;DHT22;3221;48.858;10.128;2023-06-14T12:46:33;19.80;68.10
6377;DHT22;3221;48.858;10.128;2023-06-14T12:49:01;19.80;68.60
6377;DHT22;3221;48.858;10.128;2023-06-14T12:51:28;19.90;69.00
6377;DHT22;3221;48.858;10.128;2023-06-14T12:53:56;20.00;68.80
6377;DHT22;3221;48.858;10.128;2023-06-14T12:56:23;19.90;71.50
6377;DHT22;3221;48.858;10.128;2023-06-14T12:58:50;19.80;69.60
6377;DHT22;3221;48.858;10.128;2023-06-14T13:01:18;19.90;69.00
6377;DHT22;3221;48.858;10.128;2023-06-14T13:03:46;19.80;70.20
6377;DHT22;3221;48.858;10.128;2023-06-14T13:06:13;19.80;68.10
6377;DHT22;3221;48.858;10.128;2023-06-14T13:08:40;19.70;66.90
6377;DHT22;3221;48.858;10.128;2023-06-14T13:11:07;19.70;65.90
6377;DHT22;3221;48.858;10.128;2023-06-14T13:13:34;19.70;69.60
6377;DHT22;3221;48.858;10.128;2023-06-14T13:16:02;19.90;70.00
6377;DHT22;3221;48.858;10.128;2023-06-14T13:18:29;19.80;68.10
6377;DHT22;3221;48.858;10.128;2023-06-14T13:20:56;19.80;69.70
6377;DHT22;3221;48.858;10.128;2023-06-14T13:23:23;19.80;67.30
6377;DHT22;3221;48.858;10.128;2023-06-14T13:25:50;19.80;71.00
6377;DHT22;3221;48.858;10.128;2023-06-14T13:28:17;20.00;68.70
6377;DHT22;3221;48.858;10.128;2023-06-14T13:30:44;20.10;68.50
6377;DHT22;3221;48.858;10.128;2023-06-14T13:33:13;20.10;69.00
6377;DHT22;3221;48.858;10.128;2023-06-14T13:35:40;19.90;69.40
6377;DHT22;3221;48.858;10.128;2023-06-14T13:38:09;20.00;68.90
6377;DHT22;3221;48.858;10.128;2023-06-14T13:40:36;19.90;68.50
6377;DHT22;3221;48.858;10.128;2023-06-14T13:43:02;19.90;69.50
6377;DHT22;3221;48.858;10.128;2023-06-14T13:45:29;19.90;69.00
6377;DHT22;3221;48.858;10.128;2023-06-14T13:48:14;20.10;68.40
6377;DHT22;3221;48.858;10.128;2023-06-14T13:51:00;19.90;68.50
6377;DHT22;3221;48.858;10.128;2023-06-14T13:53:49;19.90;68.10
6377;DHT22;3221;48.858;10.128;2023-06-14T13:56:34;20.00;68.60
6377;DHT22;3221;48.858;10.128;2023-06-14T13:59:19;20.00;68.90
6377;DHT22;3221;48.858;10.128;2023-06-14T14:02:03;20.00;71.30
6377;DHT22;3221;48.858;10.128;2023-06-14T14:04:47;20.00;67.70
6377;DHT22;3221;48.858;10.128;2023-06-14T14:07:37;20.10;67.10
6377;DHT22;3221;48.858;10.128;2023-06-14T14:10:22;20.10;70.00
6377;DHT22;3221;48.858;10.128;2023-06-14T14:13:07;20.10;67.00
6377;DHT22;3221;48.858;10.128;2023-06-14T14:15:52;20.10;73.40
6377;DHT22;3221;48.858;10.128;2023-06-14T14:18:36;20.20;69.00
6377;DHT22;3221;48.858;10.128;2023-06-14T14:21:21;20.30;69.70
6377;DHT22;3221;48.858;10.128;2023-06-14T14:24:06;20.30;72.40
6377;DHT22;3221;48.858;10.128;2023-06-14T14:26:51;20.30;67.20
6377;DHT22;3221;48.858;10.128;2023-06-14T14:29:37;20.30;69.40
6377;DHT22;3221;48.858;10.128;2023-06-14T14:32:04;20.30;68.70
6377;DHT22;3221;48.858;10.128;2023-06-14T14:34:31;20.30;69.00
6377;DHT22;3221;48.858;10.128;2023-06-14T14:36:58;20.30;70.30
6377;DHT22;3221;48.858;10.128;2023-06-14T14:39:25;20.30;65.90
6377;DHT22;3221;48.858;10.128;2023-06-14T14:41:52;20.40;71.00
6377;DHT22;3221;48.858;10.128;2023-06-14T14:44:18;20.30;67.00
6377;DHT22;3221;48.858;10.128;2023-06-14T14:46:46;20.40;66.10
6377;DHT22;3221;48.858;10.128;2023-06-14T14:49:13;20.40;69.10
6377;DHT22;3221;48.858;10.128;2023-06-14T14:51:39;20.50;68.60
6377;DHT22;3221;48.858;10.128;2023-06-14T14:54:07;20.60;70.80
6377;DHT22;3221;48.858;10.128;2023-06-14T14:56:34;20.50;71.20
6377;DHT22;3221;48.858;10.128;2023-06-14T14:59:02;20.50;64.70
6377;DHT22;3221;48.858;10.128;2023-06-14T15:01:29;20.50;66.60
6377;DHT22;3221;48.858;10.128;2023-06-14T15:03:56;20.40;68.40
6377;DHT22;3221;48.858;10.128;2023-06-14T15:06:26;20.50;65.40
6377;DHT22;3221;48.858;10.128;2023-06-14T15:08:53;20.50;66.10
6377;DHT22;3221;48.858;10.128;2023-06-14T15:11:19;20.60;68.10
6377;DHT22;3221;48.858;10.128;2023-06-14T15:13:47;20.70;67.90
6377;DHT22;3221;48.858;10.128;2023-06-14T15:16:14;20.70;67.30
6377;DHT22;3221;48.858;10.128;2023-06-14T15:18:41;20.70;65.50
6377;DHT22;3221;48.858;10.128;2023-06-14T15:21:08;20.70;65.80
6377;DHT22;3221;48.858;10.128;2023-06-14T15:23:35;20.80;65.00
6377;DHT22;3221;48.858;10.128;2023-06-14T15:26:02;20.70;65.70
6377;DHT22;3221;48.858;10.128;2023-06-14T15:28:28;20.70;63.90
6377;DHT22;3221;48.858;10.128;2023-06-14T15:30:56;20.60;68.40
6377;DHT22;3221;48.858;10.128;2023-06-14T15:33:23;20.50;66.20
6377;DHT22;3221;48.858;10.128;2023-06-14T15:35:50;20.40;66.70
6377;DHT22;3221;48.858;10.128;2023-06-14T15:38:17;20.30;64.80
6377;DHT22;3221;48.858;10.128;2023-06-14T15:40:44;20.20;64.20
6377;DHT22;3221;48.858;10.128;2023-06-14T15:43:11;20.40;67.30
6377;DHT22;3221;48.858;10.128;2023-06-14T15:45:37;20.60;65.90
6377;DHT22;3221;48.858;10.128;2023-06-14T15:48:06;20.60;67.10
6377;DHT22;3221;48.858;10.128;2023-06-14T15:50:33;20.50;67.00
6377;DHT22;3221;48.858;10.128;2023-06-14T15:53:00;20.50;67.20
6377;DHT22;3221;48.858;10.128;2023-06-14T15:55:27;20.50;69.30
6377;DHT22;3221;48.858;10.128;2023-06-14T15:57:53;20.40;66.40
6377;DHT22;3221;48.858;10.128;2023-06-14T16:00:21;20.30;68.00
6377;DHT22;3221;48.858;10.128;2023-06-14T16:02:48;20.40;67.90
6377;DHT22;3221;48.858;10.128;2023-06-14T16:05:16;20.30;70.00
6377;DHT22;3221;48.858;10.128;2023-06-14T16:07:43;20.30;68.50